sensor_id;sensor_type;location;lat;lon;timestamp;pressure;altitude;pressure_sealevel;temperature
12854;BMP180;6495;51.808;7.478;2023-05-07T00:01:41;101181.00;;;16.30
12854;BMP180;6495;51.808;7.478;2023-05-07T00:04:09;101186.00;;;16.30
12854;BMP180;6495;51.808;7.478;2023-05-07T00:06:38;101189.00;;;16.30
12854;BMP180;6495;51.808;7.478;2023-05-07T00:09:06;101183.00;;;16.30
12854;BMP180;6495;51.808;7.478;2023-05-07T00:11:34;101180.00;;;16.30
12854;BMP180;6495;51.808;7.478;2023-05-07T00:14:03;101177.00;;;16.30
12854;BMP180;6495;51.808;7.478;2023-05-07T00:16:31;101178.00;;;16.30
12854;BMP180;6495;51.808;7.478;2023-05-07T00:19:01;101185.00;;;16.30
12854;BMP180;6495;51.808;7.478;2023-05-07T00:21:29;101191.00;;;16.30
12854;BMP180;6495;51.808;7.478;2023-05-07T00:23:57;101192.00;;;16.30
12854;BMP180;6495;51.808;7.478;2023-05-07T00:26:25;101193.00;;;16.20
12854;BMP180;6495;51.808;7.478;2023-05-07T00:28:54;101201.00;;;16.20
12854;BMP180;6495;51.808;7.478;2023-05-07T00:31:22;101202.00;;;16.20
12854;BMP180;6495;51.808;7.478;2023-05-07T00:33:50;101200.00;;;16.20
12854;BMP180;6495;51.808;7.478;2023-05-07T00:36:20;101197.00;;;16.20
12854;BMP180;6495;51.808;7.478;2023-05-07T00:38:48;101193.00;;;16.20
12854;BMP180;6495;51.808;7.478;2023-05-07T00:41:16;101193.00;;;16.30
12854;BMP180;6495;51.808;7.478;2023-05-07T00:43:45;101193.00;;;16.30
12854;BMP180;6495;51.808;7.478;2023-05-07T00:46:14;101190.00;;;16.30
12854;BMP180;6495;51.808;7.478;2023-05-07T00:48:43;101191.00;;;16.20
12854;BMP180;6495;51.808;7.478;2023-05-07T00:51:11;101196.00;;;16.20
12854;BMP180;6495;51.808;7.478;2023-05-07T00:53:41;101195.00;;;16.20
12854;BMP180;6495;51.808;7.478;2023-05-07T00:56:09;101184.00;;;16.20
12854;BMP180;6495;51.808;7.478;2023-05-07T00:58:38;101182.00;;;16.20
12854;BMP180;6495;51.808;7.478;2023-05-07T01:01:06;101182.00;;;16.30
12854;BMP180;6495;51.808;7.478;2023-05-07T01:03:35;101190.00;;;16.30
12854;BMP180;6495;51.808;7.478;2023-05-07T01:06:05;101182.00;;;16.30
12854;BMP180;6495;51.808;7.478;2023-05-07T01:08:36;101178.00;;;16.20
12854;BMP180;6495;51.808;7.478;2023-05-07T01:11:08;101175.00;;;16.20
12854;BMP180;6495;51.808;7.478;2023-05-07T01:13:39;101164.00;;;16.20
12854;BMP180;6495;51.808;7.478;2023-05-07T01:16:09;101165.00;;;16.20
12854;BMP180;6495;51.808;7.478;2023-05-07T01:18:38;101170.00;;;16.10
12854;BMP180;6495;51.808;7.478;2023-05-07T01:21:11;101178.00;;;16.10
12854;BMP180;6495;51.808;7.478;2023-05-07T01:23:42;101173.00;;;16.10
12854;BMP180;6495;51.808;7.478;2023-05-07T01:26:10;101164.00;;;16.00
12854;BMP180;6495;51.808;7.478;2023-05-07T01:28:38;101155.00;;;16.10
12854;BMP180;6495;51.808;7.478;2023-05-07T01:31:08;101155.00;;;16.10
12854;BMP180;6495;51.808;7.478;2023-05-07T01:33:40;101162.00;;;16.00
12854;BMP180;6495;51.808;7.478;2023-05-07T01:36:10;101157.00;;;16.00
12854;BMP180;6495;51.808;7.478;2023-05-07T01:38:41;101154.00;;;16.00
12854;BMP180;6495;51.808;7.478;2023-05-07T01:41:11;101154.00;;;16.00
12854;BMP180;6495;51.808;7.478;2023-05-07T01:43:41;101164.00;;;15.90
12854;BMP180;6495;51.808;7.478;2023-05-07T01:46:11;101153.00;;;15.90
12854;BMP180;6495;51.808;7.478;2023-05-07T01:48:41;101150.00;;;15.90
12854;BMP180;6495;51.808;7.478;2023-05-07T01:51:12;101156.00;;;15.90
12854;BMP180;6495;51.808;7.478;2023-05-07T01:53:42;101159.00;;;15.90
12854;BMP180;6495;51.808;7.478;2023-05-07T01:56:10;101160.00;;;15.80
12854;BMP180;6495;51.808;7.478;2023-05-07T01:58:40;101161.00;;;15.80
12854;BMP180;6495;51.808;7.478;2023-05-07T02:01:08;101168.00;;;15.80
12854;BMP180;6495;51.808;7.478;2023-05-07T02:03:37;101164.00;;;15.80
12854;BMP180;6495;51.808;7.478;2023-05-07T02:06:12;101171.00;;;15.80
12854;BMP180;6495;51.808;7.478;2023-05-07T02:08:41;101170.00;;;15.80
12854;BMP180;6495;51.808;7.478;2023-05-07T02:11:11;101177.00;;;15.80
12854;BMP180;6495;51.808;7.478;2023-05-07T02:13:39;101181.00;;;15.70
12854;BMP180;6495;51.808;7.478;2023-05-07T02:16:08;101173.00;;;15.80
12854;BMP180;6495;51.808;7.478;2023-05-07T02:18:36;101178.00;;;15.80
12854;BMP180;6495;51.808;7.478;2023-05-07T02:21:04;101166.00;;;15.80
12854;BMP180;6495;51.808;7.478;2023-05-07T02:23:32;101165.00;;;15.80
12854;BMP180;6495;51.808;7.478;2023-05-07T02:26:04;101158.00;;;15.80
12854;BMP180;6495;51.808;7.478;2023-05-07T02:28:32;101156.00;;;15.70
12854;BMP180;6495;51.808;7.478;2023-05-07T02:31:03;101156.00;;;15.70
12854;BMP180;6495;51.808;7.478;2023-05-07T02:33:32;101152.00;;;15.70
12854;BMP180;6495;51.808;7.478;2023-05-07T02:36:07;101153.00;;;15.60
12854;BMP180;6495;51.808;7.478;2023-05-07T02:38:40;101157.00;;;15.60
12854;BMP180;6495;51.808;7.478;2023-05-07T02:41:10;101154.00;;;15.50
12854;BMP180;6495;51.808;7.478;2023-05-07T02:43:38;101150.00;;;15.50
12854;BMP180;6495;51.808;7.478;2023-05-07T02:46:08;101161.00;;;15.50
12854;BMP180;6495;51.808;7.478;2023-05-07T02:48:41;101159.00;;;15.50
12854;BMP180;6495;51.808;7.478;2023-05-07T02:51:09;101150.00;;;15.50
12854;BMP180;6495;51.808;7.478;2023-05-07T02:53:39;101163.00;;;15.50
12854;BMP180;6495;51.808;7.478;2023-05-07T02:56:09;101159.00;;;15.50
12854;BMP180;6495;51.808;7.478;2023-05-07T02:58:37;101151.00;;;15.40
12854;BMP180;6495;51.808;7.478;2023-05-07T03:05:39;101156.00;;;15.40
12854;BMP180;6495;51.808;7.478;2023-05-07T03:08:09;101152.00;;;15.40
12854;BMP180;6495;51.808;7.478;2023-05-07T03:10:38;101158.00;;;15.40
12854;BMP180;6495;51.808;7.478;2023-05-07T03:13:07;101162.00;;;15.30
12854;BMP180;6495;51.808;7.478;2023-05-07T03:15:35;101157.00;;;15.30
12854;BMP180;6495;51.808;7.478;2023-05-07T03:18:04;101158.00;;;15.20
12854;BMP180;6495;51.808;7.478;2023-05-07T03:20:32;101151.00;;;15.20
12854;BMP180;6495;51.808;7.478;2023-05-07T03:23:01;101152.00;;;15.20
12854;BMP180;6495;51.808;7.478;2023-05-07T03:25:29;101149.00;;;15.20
12854;BMP180;6495;51.808;7.478;2023-05-07T03:27:57;101154.00;;;15.10
12854;BMP180;6495;51.808;7.478;2023-05-07T03:30:35;101151.00;;;15.10
12854;BMP180;6495;51.808;7.478;2023-05-07T03:33:03;101151.00;;;15.10
12854;BMP180;6495;51.808;7.478;2023-05-07T03:35:32;101149.00;;;15.10
12854;BMP180;6495;51.808;7.478;2023-05-07T03:38:01;101149.00;;;15.10
12854;BMP180;6495;51.808;7.478;2023-05-07T03:40:32;101163.00;;;15.10
12854;BMP180;6495;51.808;7.478;2023-05-07T03:43:02;101162.00;;;15.10
12854;BMP180;6495;51.808;7.478;2023-05-07T03:45:32;101161.00;;;15.20
12854;BMP180;6495;51.808;7.478;2023-05-07T03:48:10;101163.00;;;15.10
12854;BMP180;6495;51.808;7.478;2023-05-07T03:50:38;101173.00;;;15.10
12854;BMP180;6495;51.808;7.478;2023-05-07T03:53:06;101162.00;;;15.10
12854;BMP180;6495;51.808;7.478;2023-05-07T03:55:38;101166.00;;;15.10
12854;BMP180;6495;51.808;7.478;2023-05-07T03:58:06;101173.00;;;15.10
12854;BMP180;6495;51.808;7.478;2023-05-07T04:00:34;101172.00;;;15.20
12854;BMP180;6495;51.808;7.478;2023-05-07T04:03:15;101176.00;;;15.10
12854;BMP180;6495;51.808;7.478;2023-05-07T04:05:43;101175.00;;;15.10
12854;BMP180;6495;51.808;7.478;2023-05-07T04:08:12;101172.00;;;15.10
12854;BMP180;6495;51.808;7.478;2023-05-07T04:10:45;101181.00;;;15.00
12854;BMP180;6495;51.808;7.478;2023-05-07T04:13:13;101179.00;;;14.90
12854;BMP180;6495;51.808;7.478;2023-05-07T04:15:42;101175.00;;;14.90
12854;BMP180;6495;51.808;7.478;2023-05-07T04:18:12;101169.00;;;14.90
12854;BMP180;6495;51.808;7.478;2023-05-07T04:20:45;101174.00;;;14.90
12854;BMP180;6495;51.808;7.478;2023-05-07T04:23:14;101174.00;;;14.90
12854;BMP180;6495;51.808;7.478;2023-05-07T04:25:43;101179.00;;;14.80
12854;BMP180;6495;51.808;7.478;2023-05-07T04:28:26;101179.00;;;14.80
12854;BMP180;6495;51.808;7.478;2023-05-07T04:30:54;101171.00;;;14.80
12854;BMP180;6495;51.808;7.478;2023-05-07T04:33:23;101180.00;;;14.80
12854;BMP180;6495;51.808;7.478;2023-05-07T04:35:52;101179.00;;;14.80
12854;BMP180;6495;51.808;7.478;2023-05-07T04:38:20;101174.00;;;14.70
12854;BMP180;6495;51.808;7.478;2023-05-07T04:40:52;101170.00;;;14.70
12854;BMP180;6495;51.808;7.478;2023-05-07T04:43:23;101168.00;;;14.80
12854;BMP180;6495;51.808;7.478;2023-05-07T04:45:52;101178.00;;;14.80
12854;BMP180;6495;51.808;7.478;2023-05-07T04:48:23;101176.00;;;14.80
12854;BMP180;6495;51.808;7.478;2023-05-07T04:50:54;101181.00;;;14.80
12854;BMP180;6495;51.808;7.478;2023-05-07T04:53:23;101184.00;;;14.70
12854;BMP180;6495;51.808;7.478;2023-05-07T04:55:55;101183.00;;;14.70
12854;BMP180;6495;51.808;7.478;2023-05-07T04:58:29;101187.00;;;14.70
12854;BMP180;6495;51.808;7.478;2023-05-07T05:00:59;101188.00;;;14.60
12854;BMP180;6495;51.808;7.478;2023-05-07T05:03:28;101182.00;;;14.60
12854;BMP180;6495;51.808;7.478;2023-05-07T05:05:58;101189.00;;;14.60
12854;BMP180;6495;51.808;7.478;2023-05-07T05:08:31;101188.00;;;14.60
12854;BMP180;6495;51.808;7.478;2023-05-07T05:11:01;101192.00;;;14.60
12854;BMP180;6495;51.808;7.478;2023-05-07T05:13:31;101193.00;;;14.60
12854;BMP180;6495;51.808;7.478;2023-05-07T05:16:04;101188.00;;;14.60
12854;BMP180;6495;51.808;7.478;2023-05-07T05:18:33;101194.00;;;14.50
12854;BMP180;6495;51.808;7.478;2023-05-07T05:21:02;101201.00;;;14.60
12854;BMP180;6495;51.808;7.478;2023-05-07T05:23:32;101201.00;;;14.50
12854;BMP180;6495;51.808;7.478;2023-05-07T05:26:00;101203.00;;;14.50
12854;BMP180;6495;51.808;7.478;2023-05-07T05:28:31;101214.00;;;14.50
12854;BMP180;6495;51.808;7.478;2023-05-07T05:30:59;101209.00;;;14.60
12854;BMP180;6495;51.808;7.478;2023-05-07T05:33:31;101205.00;;;14.60
12854;BMP180;6495;51.808;7.478;2023-05-07T05:36:05;101205.00;;;14.50
12854;BMP180;6495;51.808;7.478;2023-05-07T05:38:36;101202.00;;;14.50
12854;BMP180;6495;51.808;7.478;2023-05-07T05:41:05;101205.00;;;14.50
12854;BMP180;6495;51.808;7.478;2023-05-07T05:43:34;101204.00;;;14.50
12854;BMP180;6495;51.808;7.478;2023-05-07T05:46:02;101214.00;;;14.50
12854;BMP180;6495;51.808;7.478;2023-05-07T05:48:31;101208.00;;;14.50
12854;BMP180;6495;51.808;7.478;2023-05-07T05:51:01;101208.00;;;14.60
12854;BMP180;6495;51.808;7.478;2023-05-07T05:53:30;101209.00;;;14.60
12854;BMP180;6495;51.808;7.478;2023-05-07T05:55:59;101220.00;;;14.50
12854;BMP180;6495;51.808;7.478;2023-05-07T05:58:28;101215.00;;;14.50
12854;BMP180;6495;51.808;7.478;2023-05-07T06:01:01;101220.00;;;14.60
12854;BMP180;6495;51.808;7.478;2023-05-07T06:03:30;101221.00;;;14.60
12854;BMP180;6495;51.808;7.478;2023-05-07T06:06:02;101228.00;;;14.60
12854;BMP180;6495;51.808;7.478;2023-05-07T06:08:32;101228.00;;;14.60
12854;BMP180;6495;51.808;7.478;2023-05-07T06:11:01;101225.00;;;14.70
12854;BMP180;6495;51.808;7.478;2023-05-07T06:13:33;101228.00;;;14.70
12854;BMP180;6495;51.808;7.478;2023-05-07T06:16:01;101229.00;;;14.80
12854;BMP180;6495;51.808;7.478;2023-05-07T06:18:29;101239.00;;;14.80
12854;BMP180;6495;51.808;7.478;2023-05-07T06:20:58;101235.00;;;14.90
12854;BMP180;6495;51.808;7.478;2023-05-07T06:23:30;101228.00;;;14.90
12854;BMP180;6495;51.808;7.478;2023-05-07T06:26:00;101233.00;;;14.90
12854;BMP180;6495;51.808;7.478;2023-05-07T06:28:34;101232.00;;;14.90
12854;BMP180;6495;51.808;7.478;2023-05-07T06:31:14;101236.00;;;15.00
12854;BMP180;6495;51.808;7.478;2023-05-07T06:33:47;101235.00;;;15.00
12854;BMP180;6495;51.808;7.478;2023-05-07T06:36:16;101241.00;;;15.10
12854;BMP180;6495;51.808;7.478;2023-05-07T06:38:45;101244.00;;;15.20
12854;BMP180;6495;51.808;7.478;2023-05-07T06:41:16;101254.00;;;15.30
12854;BMP180;6495;51.808;7.478;2023-05-07T06:43:44;101260.00;;;15.30
12854;BMP180;6495;51.808;7.478;2023-05-07T06:46:40;101255.00;;;15.40
12854;BMP180;6495;51.808;7.478;2023-05-07T06:49:09;101255.00;;;15.60
12854;BMP180;6495;51.808;7.478;2023-05-07T06:51:37;101266.00;;;15.60
12854;BMP180;6495;51.808;7.478;2023-05-07T06:54:06;101256.00;;;15.70
12854;BMP180;6495;51.808;7.478;2023-05-07T06:56:38;101257.00;;;15.70
12854;BMP180;6495;51.808;7.478;2023-05-07T06:59:06;101261.00;;;15.70
12854;BMP180;6495;51.808;7.478;2023-05-07T07:01:38;101255.00;;;15.70
12854;BMP180;6495;51.808;7.478;2023-05-07T07:04:08;101257.00;;;15.80
12854;BMP180;6495;51.808;7.478;2023-05-07T07:06:39;101255.00;;;15.80
12854;BMP180;6495;51.808;7.478;2023-05-07T07:09:10;101262.00;;;15.80
12854;BMP180;6495;51.808;7.478;2023-05-07T07:11:41;101249.00;;;15.70
12854;BMP180;6495;51.808;7.478;2023-05-07T07:14:09;101257.00;;;15.80
12854;BMP180;6495;51.808;7.478;2023-05-07T07:16:58;101251.00;;;15.80
12854;BMP180;6495;51.808;7.478;2023-05-07T07:19:34;101257.00;;;15.80
12854;BMP180;6495;51.808;7.478;2023-05-07T07:22:03;101265.00;;;15.80
12854;BMP180;6495;51.808;7.478;2023-05-07T07:24:32;101264.00;;;15.90
12854;BMP180;6495;51.808;7.478;2023-05-07T07:27:57;101264.00;;;15.90
12854;BMP180;6495;51.808;7.478;2023-05-07T07:30:29;101263.00;;;15.90
12854;BMP180;6495;51.808;7.478;2023-05-07T07:32:57;101264.00;;;16.00
12854;BMP180;6495;51.808;7.478;2023-05-07T07:35:34;101269.00;;;16.00
12854;BMP180;6495;51.808;7.478;2023-05-07T07:38:04;101268.00;;;16.10
12854;BMP180;6495;51.808;7.478;2023-05-07T07:40:35;101278.00;;;16.20
12854;BMP180;6495;51.808;7.478;2023-05-07T07:43:14;101283.00;;;16.30
12854;BMP180;6495;51.808;7.478;2023-05-07T07:45:43;101273.00;;;16.30
12854;BMP180;6495;51.808;7.478;2023-05-07T07:48:13;101267.00;;;16.30
12854;BMP180;6495;51.808;7.478;2023-05-07T07:50:41;101263.00;;;16.40
12854;BMP180;6495;51.808;7.478;2023-05-07T07:53:15;101260.00;;;16.40
12854;BMP180;6495;51.808;7.478;2023-05-07T07:55:44;101260.00;;;16.40
12854;BMP180;6495;51.808;7.478;2023-05-07T07:58:21;101267.00;;;16.50
12854;BMP180;6495;51.808;7.478;2023-05-07T08:00:50;101265.00;;;16.60
12854;BMP180;6495;51.808;7.478;2023-05-07T08:03:19;101279.00;;;16.60
12854;BMP180;6495;51.808;7.478;2023-05-07T08:05:52;101278.00;;;16.60
12854;BMP180;6495;51.808;7.478;2023-05-07T08:08:20;101284.00;;;16.60
12854;BMP180;6495;51.808;7.478;2023-05-07T08:10:49;101281.00;;;16.70
12854;BMP180;6495;51.808;7.478;2023-05-07T08:13:27;101283.00;;;16.70
12854;BMP180;6495;51.808;7.478;2023-05-07T08:15:56;101278.00;;;16.70
12854;BMP180;6495;51.808;7.478;2023-05-07T08:18:25;101283.00;;;16.80
12854;BMP180;6495;51.808;7.478;2023-05-07T08:20:59;101291.00;;;16.80
12854;BMP180;6495;51.808;7.478;2023-05-07T08:23:27;101287.00;;;16.90
12854;BMP180;6495;51.808;7.478;2023-05-07T08:25:56;101290.00;;;17.00
12854;BMP180;6495;51.808;7.478;2023-05-07T08:28:26;101291.00;;;17.00
12854;BMP180;6495;51.808;7.478;2023-05-07T08:30:55;101295.00;;;17.10
12854;BMP180;6495;51.808;7.478;2023-05-07T08:33:30;101291.00;;;17.20
12854;BMP180;6495;51.808;7.478;2023-05-07T08:35:59;101297.00;;;17.10
12854;BMP180;6495;51.808;7.478;2023-05-07T08:38:28;101294.00;;;17.20
12854;BMP180;6495;51.808;7.478;2023-05-07T08:40:57;101292.00;;;17.30
12854;BMP180;6495;51.808;7.478;2023-05-07T08:43:33;101308.00;;;17.30
12854;BMP180;6495;51.808;7.478;2023-05-07T08:46:04;101299.00;;;17.30
12854;BMP180;6495;51.808;7.478;2023-05-07T08:48:39;101300.00;;;17.40
12854;BMP180;6495;51.808;7.478;2023-05-07T08:51:13;101299.00;;;17.30
12854;BMP180;6495;51.808;7.478;2023-05-07T08:53:43;101297.00;;;17.40
12854;BMP180;6495;51.808;7.478;2023-05-07T08:56:17;101286.00;;;17.50
12854;BMP180;6495;51.808;7.478;2023-05-07T08:58:51;101301.00;;;17.70
12854;BMP180;6495;51.808;7.478;2023-05-07T09:01:25;101301.00;;;17.90
12854;BMP180;6495;51.808;7.478;2023-05-07T09:04:00;101296.00;;;18.00
12854;BMP180;6495;51.808;7.478;2023-05-07T09:06:30;101298.00;;;18.10
12854;BMP180;6495;51.808;7.478;2023-05-07T09:09:00;101297.00;;;18.20
12854;BMP180;6495;51.808;7.478;2023-05-07T09:11:30;101304.00;;;18.30
12854;BMP180;6495;51.808;7.478;2023-05-07T09:14:02;101302.00;;;18.20
12854;BMP180;6495;51.808;7.478;2023-05-07T09:16:36;101303.00;;;18.20
12854;BMP180;6495;51.808;7.478;2023-05-07T09:19:05;101290.00;;;18.30
12854;BMP180;6495;51.808;7.478;2023-05-07T09:21:35;101292.00;;;18.30
12854;BMP180;6495;51.808;7.478;2023-05-07T09:24:08;101298.00;;;18.40
12854;BMP180;6495;51.808;7.478;2023-05-07T09:26:40;101291.00;;;18.40
12854;BMP180;6495;51.808;7.478;2023-05-07T09:29:18;101292.00;;;18.50
12854;BMP180;6495;51.808;7.478;2023-05-07T09:31:47;101295.00;;;18.60
12854;BMP180;6495;51.808;7.478;2023-05-07T09:34:22;101301.00;;;18.50
12854;BMP180;6495;51.808;7.478;2023-05-07T09:37:02;101293.00;;;18.60
12854;BMP180;6495;51.808;7.478;2023-05-07T09:39:43;101302.00;;;18.70
12854;BMP180;6495;51.808;7.478;2023-05-07T09:42:39;101306.00;;;18.70
12854;BMP180;6495;51.808;7.478;2023-05-07T09:45:10;101304.00;;;18.80
12854;BMP180;6495;51.808;7.478;2023-05-07T09:47:43;101299.00;;;18.90
12854;BMP180;6495;51.808;7.478;2023-05-07T09:50:32;101299.00;;;19.00
12854;BMP180;6495;51.808;7.478;2023-05-07T09:53:04;101312.00;;;19.20
12854;BMP180;6495;51.808;7.478;2023-05-07T09:55:34;101308.00;;;19.20
12854;BMP180;6495;51.808;7.478;2023-05-07T09:58:06;101300.00;;;19.40
12854;BMP180;6495;51.808;7.478;2023-05-07T10:00:43;101303.00;;;19.40
12854;BMP180;6495;51.808;7.478;2023-05-07T10:03:15;101305.00;;;19.40
12854;BMP180;6495;51.808;7.478;2023-05-07T10:05:53;101300.00;;;19.40
12854;BMP180;6495;51.808;7.478;2023-05-07T10:08:30;101298.00;;;19.50
12854;BMP180;6495;51.808;7.478;2023-05-07T10:11:08;101299.00;;;19.50
12854;BMP180;6495;51.808;7.478;2023-05-07T10:13:37;101301.00;;;19.50
12854;BMP180;6495;51.808;7.478;2023-05-07T10:16:10;101302.00;;;19.50
12854;BMP180;6495;51.808;7.478;2023-05-07T10:18:44;101305.00;;;19.60
12854;BMP180;6495;51.808;7.478;2023-05-07T10:21:20;101303.00;;;19.60
12854;BMP180;6495;51.808;7.478;2023-05-07T10:24:01;101310.00;;;19.70
12854;BMP180;6495;51.808;7.478;2023-05-07T10:27:07;101306.00;;;19.90
12854;BMP180;6495;51.808;7.478;2023-05-07T10:29:58;101310.00;;;19.80
12854;BMP180;6495;51.808;7.478;2023-05-07T10:32:45;101309.00;;;20.00
12854;BMP180;6495;51.808;7.478;2023-05-07T10:35:44;101307.00;;;19.90
12854;BMP180;6495;51.808;7.478;2023-05-07T10:38:14;101307.00;;;19.90
12854;BMP180;6495;51.808;7.478;2023-05-07T10:41:06;101310.00;;;20.00
12854;BMP180;6495;51.808;7.478;2023-05-07T10:43:47;101319.00;;;20.10
12854;BMP180;6495;51.808;7.478;2023-05-07T10:46:23;101313.00;;;20.20
12854;BMP180;6495;51.808;7.478;2023-05-07T10:49:09;101319.00;;;20.30
12854;BMP180;6495;51.808;7.478;2023-05-07T10:52:14;101311.00;;;20.30
12854;BMP180;6495;51.808;7.478;2023-05-07T10:55:20;101315.00;;;20.30
12854;BMP180;6495;51.808;7.478;2023-05-07T10:58:36;101316.00;;;20.40
12854;BMP180;6495;51.808;7.478;2023-05-07T11:01:53;101315.00;;;20.40
12854;BMP180;6495;51.808;7.478;2023-05-07T11:04:42;101306.00;;;20.40
12854;BMP180;6495;51.808;7.478;2023-05-07T11:07:30;101314.00;;;20.50
12854;BMP180;6495;51.808;7.478;2023-05-07T11:10:07;101312.00;;;20.50
12854;BMP180;6495;51.808;7.478;2023-05-07T11:12:54;101309.00;;;20.60
12854;BMP180;6495;51.808;7.478;2023-05-07T11:15:43;101306.00;;;20.90
12854;BMP180;6495;51.808;7.478;2023-05-07T11:18:19;101297.00;;;21.00
12854;BMP180;6495;51.808;7.478;2023-05-07T11:20:58;101300.00;;;20.90
12854;BMP180;6495;51.808;7.478;2023-05-07T11:23:58;101299.00;;;20.90
12854;BMP180;6495;51.808;7.478;2023-05-07T11:26:46;101299.00;;;20.80
12854;BMP180;6495;51.808;7.478;2023-05-07T11:29:18;101290.00;;;20.90
12854;BMP180;6495;51.808;7.478;2023-05-07T11:31:52;101305.00;;;20.90
12854;BMP180;6495;51.808;7.478;2023-05-07T11:34:26;101287.00;;;21.00
12854;BMP180;6495;51.808;7.478;2023-05-07T11:37:01;101287.00;;;21.10
12854;BMP180;6495;51.808;7.478;2023-05-07T11:39:46;101298.00;;;21.30
12854;BMP180;6495;51.808;7.478;2023-05-07T11:42:27;101293.00;;;21.40
12854;BMP180;6495;51.808;7.478;2023-05-07T11:44:56;101301.00;;;21.40
12854;BMP180;6495;51.808;7.478;2023-05-07T11:47:24;101300.00;;;21.40
12854;BMP180;6495;51.808;7.478;2023-05-07T11:49:54;101306.00;;;21.40
12854;BMP180;6495;51.808;7.478;2023-05-07T11:52:24;101309.00;;;21.50
12854;BMP180;6495;51.808;7.478;2023-05-07T11:54:56;101304.00;;;21.50
12854;BMP180;6495;51.808;7.478;2023-05-07T11:57:25;101300.00;;;21.50
12854;BMP180;6495;51.808;7.478;2023-05-07T11:59:54;101307.00;;;21.30
12854;BMP180;6495;51.808;7.478;2023-05-07T12:02:23;101306.00;;;21.40
12854;BMP180;6495;51.808;7.478;2023-05-07T12:04:53;101313.00;;;21.40
12854;BMP180;6495;51.808;7.478;2023-05-07T12:07:25;101305.00;;;21.40
12854;BMP180;6495;51.808;7.478;2023-05-07T12:09:54;101306.00;;;21.40
12854;BMP180;6495;51.808;7.478;2023-05-07T12:12:23;101305.00;;;21.40
12854;BMP180;6495;51.808;7.478;2023-05-07T12:14:55;101310.00;;;21.60
12854;BMP180;6495;51.808;7.478;2023-05-07T12:17:24;101309.00;;;21.70
12854;BMP180;6495;51.808;7.478;2023-05-07T12:19:53;101309.00;;;21.80
12854;BMP180;6495;51.808;7.478;2023-05-07T12:22:24;101305.00;;;21.80
12854;BMP180;6495;51.808;7.478;2023-05-07T12:28:39;101322.00;;;22.00
12854;BMP180;6495;51.808;7.478;2023-05-07T12:31:07;101315.00;;;22.00
12854;BMP180;6495;51.808;7.478;2023-05-07T12:48:23;101308.00;;;22.00
12854;BMP180;6495;51.808;7.478;2023-05-07T12:50:55;101317.00;;;22.00
12854;BMP180;6495;51.808;7.478;2023-05-07T12:53:26;101307.00;;;21.90
12854;BMP180;6495;51.808;7.478;2023-05-07T12:55:55;101308.00;;;21.90
12854;BMP180;6495;51.808;7.478;2023-05-07T12:58:26;101312.00;;;22.10
12854;BMP180;6495;51.808;7.478;2023-05-07T13:00:56;101314.00;;;22.10
12854;BMP180;6495;51.808;7.478;2023-05-07T13:03:31;101312.00;;;22.00
12854;BMP180;6495;51.808;7.478;2023-05-07T13:06:02;101316.00;;;22.10
12854;BMP180;6495;51.808;7.478;2023-05-07T13:08:33;101311.00;;;22.10
12854;BMP180;6495;51.808;7.478;2023-05-07T13:11:03;101317.00;;;22.00
12854;BMP180;6495;51.808;7.478;2023-05-07T13:13:33;101317.00;;;22.00
12854;BMP180;6495;51.808;7.478;2023-05-07T13:16:02;101315.00;;;22.10
12854;BMP180;6495;51.808;7.478;2023-05-07T13:18:34;101323.00;;;22.20
12854;BMP180;6495;51.808;7.478;2023-05-07T13:21:03;101317.00;;;22.20
12854;BMP180;6495;51.808;7.478;2023-05-07T13:23:31;101316.00;;;22.00
12854;BMP180;6495;51.808;7.478;2023-05-07T13:25:59;101323.00;;;22.00
12854;BMP180;6495;51.808;7.478;2023-05-07T13:28:40;101315.00;;;22.10
12854;BMP180;6495;51.808;7.478;2023-05-07T13:31:10;101318.00;;;22.20
12854;BMP180;6495;51.808;7.478;2023-05-07T13:33:40;101322.00;;;22.20
12854;BMP180;6495;51.808;7.478;2023-05-07T13:36:08;101323.00;;;22.20
12854;BMP180;6495;51.808;7.478;2023-05-07T13:38:39;101316.00;;;22.20
12854;BMP180;6495;51.808;7.478;2023-05-07T13:41:07;101319.00;;;22.30
12854;BMP180;6495;51.808;7.478;2023-05-07T13:43:35;101314.00;;;22.30
12854;BMP180;6495;51.808;7.478;2023-05-07T13:46:04;101317.00;;;22.20
12854;BMP180;6495;51.808;7.478;2023-05-07T13:48:32;101323.00;;;22.10
12854;BMP180;6495;51.808;7.478;2023-05-07T13:51:01;101322.00;;;22.10
12854;BMP180;6495;51.808;7.478;2023-05-07T13:53:30;101325.00;;;22.00
12854;BMP180;6495;51.808;7.478;2023-05-07T13:55:58;101326.00;;;22.10
12854;BMP180;6495;51.808;7.478;2023-05-07T13:58:26;101322.00;;;22.00
12854;BMP180;6495;51.808;7.478;2023-05-07T14:00:54;101324.00;;;22.00
12854;BMP180;6495;51.808;7.478;2023-05-07T14:03:22;101325.00;;;22.10
12854;BMP180;6495;51.808;7.478;2023-05-07T14:05:51;101322.00;;;22.10
12854;BMP180;6495;51.808;7.478;2023-05-07T14:08:20;101331.00;;;22.10
12854;BMP180;6495;51.808;7.478;2023-05-07T14:10:48;101331.00;;;21.90
12854;BMP180;6495;51.808;7.478;2023-05-07T14:13:17;101325.00;;;22.00
12854;BMP180;6495;51.808;7.478;2023-05-07T14:15:45;101327.00;;;22.00
12854;BMP180;6495;51.808;7.478;2023-05-07T14:18:18;101331.00;;;22.00
12854;BMP180;6495;51.808;7.478;2023-05-07T14:20:49;101335.00;;;22.00
12854;BMP180;6495;51.808;7.478;2023-05-07T14:23:19;101329.00;;;22.00
12854;BMP180;6495;51.808;7.478;2023-05-07T14:25:53;101320.00;;;22.00
12854;BMP180;6495;51.808;7.478;2023-05-07T14:28:24;101327.00;;;22.00
12854;BMP180;6495;51.808;7.478;2023-05-07T14:30:53;101330.00;;;22.00
12854;BMP180;6495;51.808;7.478;2023-05-07T14:33:21;101325.00;;;21.90
12854;BMP180;6495;51.808;7.478;2023-05-07T14:35:50;101330.00;;;21.80
12854;BMP180;6495;51.808;7.478;2023-05-07T14:38:33;101333.00;;;21.90
12854;BMP180;6495;51.808;7.478;2023-05-07T14:44:48;101336.00;;;21.80
12854;BMP180;6495;51.808;7.478;2023-05-07T14:47:16;101339.00;;;21.80
12854;BMP180;6495;51.808;7.478;2023-05-07T14:49:46;101338.00;;;21.80
12854;BMP180;6495;51.808;7.478;2023-05-07T14:52:14;101344.00;;;21.80
12854;BMP180;6495;51.808;7.478;2023-05-07T14:54:43;101337.00;;;21.80
12854;BMP180;6495;51.808;7.478;2023-05-07T14:57:13;101341.00;;;21.70
12854;BMP180;6495;51.808;7.478;2023-05-07T14:59:43;101344.00;;;21.70
12854;BMP180;6495;51.808;7.478;2023-05-07T15:02:12;101340.00;;;21.70
12854;BMP180;6495;51.808;7.478;2023-05-07T15:04:40;101341.00;;;21.70